createdAt,value
2019-05-25T00:01:17.585Z,99.90
2019-05-25T00:03:46.169Z,99.90
2019-05-25T00:06:14.735Z,99.90
2019-05-25T00:08:43.337Z,99.90
2019-05-25T00:11:12.001Z,99.90
2019-05-25T00:13:40.633Z,99.90
2019-05-25T00:16:09.217Z,99.90
2019-05-25T00:18:37.796Z,99.90
2019-05-25T00:21:06.643Z,99.90
2019-05-25T00:23:35.200Z,99.90
2019-05-25T00:26:03.784Z,99.90
2019-05-25T00:28:32.381Z,99.90
2019-05-25T00:31:00.960Z,99.90
2019-05-25T00:33:29.540Z,99.90
2019-05-25T00:35:58.112Z,99.90
2019-05-25T00:38:26.691Z,99.90
2019-05-25T00:40:55.336Z,99.90
2019-05-25T00:43:23.924Z,99.90
2019-05-25T00:45:52.539Z,99.90
2019-05-25T00:48:21.234Z,99.90
2019-05-25T00:50:49.819Z,99.90
2019-05-25T00:53:18.417Z,99.90
2019-05-25T00:55:46.993Z,99.90
2019-05-25T00:58:15.575Z,99.90
2019-05-25T01:00:44.144Z,99.90
2019-05-25T01:03:12.791Z,99.90
2019-05-25T01:05:41.343Z,99.90
2019-05-25T01:08:09.928Z,99.90
2019-05-25T01:10:38.500Z,99.90
2019-05-25T01:13:07.073Z,99.90
2019-05-25T01:15:35.766Z,99.90
2019-05-25T01:18:04.334Z,99.90
2019-05-25T01:20:32.912Z,99.90
2019-05-25T01:23:01.496Z,99.90
2019-05-25T01:25:30.406Z,99.90
2019-05-25T01:27:58.962Z,99.90
2019-05-25T01:30:39.948Z,99.90
2019-05-25T01:33:08.938Z,99.90
2019-05-25T01:35:37.537Z,99.90
2019-05-25T01:38:06.105Z,99.90
2019-05-25T01:40:34.684Z,99.90
2019-05-25T01:43:03.260Z,99.90
2019-05-25T01:45:31.836Z,99.90
2019-05-25T01:48:19.753Z,99.90
2019-05-25T01:50:48.315Z,99.90
2019-05-25T01:53:16.935Z,99.90
2019-05-25T01:55:45.515Z,99.90
2019-05-25T01:58:14.101Z,99.90
2019-05-25T02:00:42.783Z,99.90
2019-05-25T02:03:11.376Z,99.90
2019-05-25T02:05:39.959Z,99.90
2019-05-25T02:08:08.545Z,99.90
2019-05-25T02:10:37.132Z,99.90
2019-05-25T02:13:05.698Z,99.90
2019-05-25T02:15:34.309Z,99.90
2019-05-25T02:18:02.886Z,99.90
2019-05-25T02:20:31.456Z,99.90
2019-05-25T02:23:00.028Z,99.90
2019-05-25T02:25:28.600Z,99.90
2019-05-25T02:27:57.197Z,99.90
2019-05-25T02:30:26.677Z,99.90
2019-05-25T02:32:55.592Z,99.90
2019-05-25T02:35:43.585Z,99.90
2019-05-25T02:38:12.480Z,99.90
2019-05-25T02:40:41.070Z,99.90
2019-05-25T02:43:09.805Z,99.90
2019-05-25T02:45:38.796Z,99.90
2019-05-25T02:48:07.375Z,99.90
2019-05-25T02:50:35.948Z,99.90
2019-05-25T02:53:04.540Z,99.90
2019-05-25T02:55:34.928Z,99.90
2019-05-25T02:58:03.426Z,99.90
2019-05-25T03:00:33.150Z,99.90
2019-05-25T03:03:02.213Z,99.90
2019-05-25T03:05:30.796Z,99.90
2019-05-25T03:07:59.376Z,99.90
2019-05-25T03:10:28.172Z,99.90
2019-05-25T03:12:57.079Z,99.90
2019-05-25T03:15:25.720Z,99.90
2019-05-25T03:17:54.913Z,99.90
2019-05-25T03:20:23.511Z,99.90
2019-05-25T03:22:52.225Z,99.90
2019-05-25T03:25:20.845Z,99.90
2019-05-25T03:27:49.452Z,99.90
2019-05-25T03:30:29.277Z,99.90
2019-05-25T03:32:57.902Z,99.90
2019-05-25T03:35:26.481Z,99.90
2019-05-25T03:37:55.070Z,99.90
2019-05-25T03:40:23.661Z,99.90
2019-05-25T03:42:52.345Z,99.90
2019-05-25T03:45:21.238Z,99.90
2019-05-25T03:48:09.112Z,99.90
2019-05-25T03:50:37.700Z,99.90
2019-05-25T03:53:06.300Z,99.90
2019-05-25T03:55:34.881Z,99.90
2019-05-25T03:58:03.468Z,99.90
2019-05-25T04:00:51.405Z,99.90
2019-05-25T04:03:21.596Z,99.90
2019-05-25T04:05:50.184Z,99.90
2019-05-25T04:08:18.800Z,99.90
2019-05-25T04:10:47.386Z,99.90
2019-05-25T04:13:15.968Z,99.90
2019-05-25T04:15:44.628Z,99.90
2019-05-25T04:18:13.230Z,99.90
2019-05-25T04:20:41.845Z,99.90
2019-05-25T04:23:10.432Z,99.90
2019-05-25T04:25:39.034Z,99.90
2019-05-25T04:28:07.615Z,99.90
2019-05-25T04:30:36.197Z,99.90
2019-05-25T04:33:04.858Z,99.90
2019-05-25T04:35:33.407Z,99.90
2019-05-25T04:38:02.018Z,99.90
2019-05-25T04:40:30.676Z,99.90
2019-05-25T04:42:59.272Z,99.90
2019-05-25T04:45:27.847Z,99.90
2019-05-25T04:47:56.421Z,99.90
2019-05-25T04:50:25.005Z,99.90
2019-05-25T04:52:53.586Z,99.90
2019-05-25T04:55:22.237Z,99.90
2019-05-25T04:57:50.793Z,99.90
2019-05-25T05:00:19.382Z,99.90
2019-05-25T05:02:47.981Z,99.90
2019-05-25T05:05:16.564Z,99.90
2019-05-25T05:07:45.141Z,99.90
2019-05-25T05:10:15.380Z,99.90
2019-05-25T05:12:43.958Z,99.90
2019-05-25T05:15:12.556Z,99.90
2019-05-25T05:17:41.218Z,99.90
2019-05-25T05:20:09.861Z,99.90
2019-05-25T05:22:38.421Z,99.90
2019-05-25T05:25:07.316Z,99.90
2019-05-25T05:27:36.576Z,99.90
2019-05-25T05:30:05.965Z,99.90
2019-05-25T05:32:34.569Z,99.90
2019-05-25T05:35:03.183Z,99.90
2019-05-25T05:37:31.768Z,99.90
2019-05-25T05:40:00.344Z,99.90
2019-05-25T05:42:28.913Z,99.90
2019-05-25T05:44:57.940Z,99.90
2019-05-25T05:47:45.837Z,99.90
2019-05-25T05:50:14.456Z,99.90
2019-05-25T05:52:43.029Z,99.90
2019-05-25T05:55:11.617Z,99.90
2019-05-25T05:57:40.184Z,99.90
2019-05-25T06:00:09.010Z,99.90
2019-05-25T06:02:37.590Z,99.90
2019-05-25T06:05:06.158Z,99.90
2019-05-25T06:07:34.756Z,99.90
2019-05-25T06:10:03.856Z,99.90
2019-05-25T06:12:32.439Z,99.90
2019-05-25T06:15:01.005Z,99.90
2019-05-25T06:17:31.897Z,99.90
2019-05-25T06:20:00.522Z,99.90
2019-05-25T06:22:29.105Z,99.90
2019-05-25T06:24:57.998Z,99.90
2019-05-25T06:27:27.923Z,99.90
2019-05-25T06:29:56.808Z,99.90
2019-05-25T06:32:25.423Z,99.90
2019-05-25T06:34:54.138Z,99.90
2019-05-25T06:37:22.764Z,99.90
2019-05-25T06:39:51.400Z,99.90
2019-05-25T06:42:39.348Z,99.90
2019-05-25T06:45:08.005Z,99.90
2019-05-25T06:47:36.601Z,99.80
2019-05-25T06:50:05.644Z,99.70
2019-05-25T06:52:34.269Z,99.70
2019-05-25T06:55:02.860Z,99.90
2019-05-25T06:57:42.539Z,99.70
2019-05-25T07:00:02.081Z,99.70
2019-05-25T07:02:30.640Z,99.90
2019-05-25T07:04:59.220Z,99.90
2019-05-25T07:07:27.805Z,99.40
2019-05-25T07:09:56.383Z,99.40
2019-05-25T07:12:24.968Z,99.90
2019-05-25T07:14:53.592Z,99.90
2019-05-25T07:17:22.159Z,99.90
2019-05-25T07:19:50.776Z,99.90
2019-05-25T07:22:19.372Z,99.90
2019-05-25T07:24:47.981Z,99.90
2019-05-25T07:27:16.761Z,99.90
2019-05-25T07:29:45.348Z,99.90
2019-05-25T07:32:13.961Z,99.90
2019-05-25T07:34:42.517Z,99.90
2019-05-25T07:37:11.108Z,99.90
2019-05-25T07:39:39.682Z,99.90
2019-05-25T07:42:08.260Z,99.90
2019-05-25T07:44:37.113Z,99.90
2019-05-25T07:47:06.002Z,99.90
2019-05-25T07:49:53.913Z,99.90
2019-05-25T07:52:22.476Z,99.90
2019-05-25T07:54:51.154Z,99.90
2019-05-25T07:57:19.811Z,99.90
2019-05-25T07:59:48.425Z,99.90
2019-05-25T08:02:17.009Z,99.90
2019-05-25T08:04:45.609Z,99.90
2019-05-25T08:07:14.447Z,99.90
2019-05-25T08:09:43.044Z,99.90
2019-05-25T08:12:11.665Z,99.90
2019-05-25T08:14:40.246Z,99.90
2019-05-25T08:17:08.828Z,99.90
2019-05-25T08:19:37.413Z,99.90
2019-05-25T08:22:06.055Z,99.90
2019-05-25T08:24:34.915Z,99.90
2019-05-25T08:27:03.525Z,99.90
2019-05-25T08:29:32.123Z,99.90
2019-05-25T08:32:00.712Z,99.90
2019-05-25T08:34:29.297Z,99.40
2019-05-25T08:36:57.884Z,99.90
2019-05-25T08:39:26.483Z,99.90
2019-05-25T08:41:55.059Z,99.90
2019-05-25T08:44:23.627Z,99.90
2019-05-25T08:46:55.230Z,99.90
2019-05-25T08:49:22.824Z,99.90
2019-05-25T08:51:54.786Z,99.80
2019-05-25T08:54:22.056Z,99.90
2019-05-25T08:56:50.750Z,99.90
2019-05-25T08:59:19.395Z,99.90
2019-05-25T09:01:48.065Z,99.90
2019-05-25T09:04:16.761Z,99.50
2019-05-25T09:06:45.362Z,99.50
2019-05-25T09:09:13.929Z,99.90
2019-05-25T09:11:42.549Z,99.90
2019-05-25T09:14:11.108Z,99.90
2019-05-25T09:16:39.688Z,99.90
2019-05-25T09:19:08.259Z,99.60
2019-05-25T09:22:02.590Z,99.90
2019-05-25T09:24:26.484Z,99.70
2019-05-25T09:26:55.077Z,98.90
2019-05-25T09:29:23.674Z,98.30
2019-05-25T09:32:11.548Z,99.10
2019-05-25T09:34:40.153Z,98.90
2019-05-25T09:37:08.744Z,97.70
2019-05-25T09:39:37.344Z,98.40
2019-05-25T09:42:05.956Z,98.50
2019-05-25T09:44:34.537Z,97.80
2019-05-25T09:47:03.129Z,99.40
2019-05-25T09:49:31.709Z,98.00
2019-05-25T09:52:00.295Z,98.00
2019-05-25T09:54:28.864Z,98.10
2019-05-25T09:56:57.457Z,98.80
2019-05-25T09:59:26.041Z,98.50
2019-05-25T10:01:54.699Z,98.60
2019-05-25T10:04:23.600Z,98.20
2019-05-25T10:06:52.185Z,97.90
2019-05-25T10:09:20.841Z,97.00
2019-05-25T10:11:49.779Z,96.90
2019-05-25T10:14:18.361Z,96.50
2019-05-25T10:16:46.924Z,97.80
2019-05-25T10:19:15.860Z,97.20
2019-05-25T10:21:44.459Z,96.80
2019-05-25T10:24:13.057Z,96.80
2019-05-25T10:26:41.655Z,95.80
2019-05-25T10:29:10.525Z,96.50
2019-05-25T10:31:58.429Z,96.30
2019-05-25T10:34:27.005Z,96.20
2019-05-25T10:36:55.609Z,95.90
2019-05-25T10:39:24.197Z,95.80
2019-05-25T10:41:52.888Z,95.70
2019-05-25T10:44:21.520Z,95.30
2019-05-25T10:46:50.538Z,95.20
2019-05-25T10:49:19.147Z,94.40
2019-05-25T10:52:07.340Z,95.20
2019-05-25T10:54:36.219Z,94.50
2019-05-25T10:57:04.791Z,94.30
2019-05-25T10:59:33.560Z,94.50
2019-05-25T11:02:02.146Z,94.60
2019-05-25T11:04:30.733Z,94.00
2019-05-25T11:06:59.324Z,94.80
2019-05-25T11:09:27.907Z,94.50
2019-05-25T11:11:56.482Z,94.60
2019-05-25T11:14:25.052Z,93.60
2019-05-25T11:16:53.705Z,94.10
2019-05-25T11:19:24.150Z,92.90
2019-05-25T11:21:52.637Z,93.60
2019-05-25T11:24:21.280Z,93.20
2019-05-25T11:26:49.860Z,93.50
2019-05-25T11:29:18.425Z,93.40
2019-05-25T11:31:55.723Z,92.10
2019-05-25T11:34:17.361Z,92.10
2019-05-25T11:36:46.218Z,91.40
2019-05-25T11:39:14.800Z,91.50
2019-05-25T11:41:43.368Z,90.40
2019-05-25T11:44:11.939Z,91.10
2019-05-25T11:46:40.513Z,90.00
2019-05-25T11:49:21.594Z,90.30
2019-05-25T11:51:39.687Z,91.10
2019-05-25T11:54:08.315Z,90.80
2019-05-25T11:56:36.888Z,91.30
2019-05-25T11:59:05.464Z,90.90
2019-05-25T12:01:34.061Z,91.60
2019-05-25T12:04:02.625Z,91.50
2019-05-25T12:06:31.200Z,92.20
2019-05-25T12:08:59.801Z,92.00
2019-05-25T12:11:28.381Z,92.40
2019-05-25T12:13:57.395Z,91.80
2019-05-25T12:16:26.061Z,92.60
2019-05-25T12:18:54.677Z,92.30
2019-05-25T12:21:23.220Z,92.00
2019-05-25T12:23:51.879Z,91.70
2019-05-25T12:26:22.656Z,92.10
2019-05-25T12:28:51.307Z,92.50
2019-05-25T12:31:19.933Z,91.20
2019-05-25T12:33:48.510Z,91.20
2019-05-25T12:36:17.178Z,91.40
2019-05-25T12:38:45.769Z,91.20
2019-05-25T12:41:14.361Z,91.00
2019-05-25T12:43:43.020Z,90.50
2019-05-25T12:46:11.602Z,90.30
2019-05-25T12:48:40.184Z,90.50
2019-05-25T12:51:08.769Z,90.10
2019-05-25T14:03:59.846Z,99.90
2019-05-25T14:15:36.517Z,65.20
2019-05-25T14:18:05.103Z,64.20
2019-05-25T15:58:45.473Z,57.60
2019-05-25T16:01:14.066Z,61.10
2019-05-25T16:03:42.953Z,62.40
2019-05-25T16:06:11.528Z,64.00
2019-05-25T16:08:40.095Z,64.70
2019-05-25T16:11:08.749Z,64.30
2019-05-25T16:13:37.340Z,66.00
2019-05-25T16:16:05.940Z,66.60
2019-05-25T16:18:34.609Z,66.60
2019-05-25T16:21:03.182Z,67.90
2019-05-25T16:23:31.773Z,67.40
2019-05-25T16:26:00.338Z,67.30
2019-05-25T16:28:28.906Z,67.40
2019-05-25T16:30:57.469Z,67.80
2019-05-25T16:33:26.038Z,70.60
2019-05-25T16:35:57.915Z,69.10
2019-05-25T16:38:25.062Z,68.80
2019-05-25T16:40:53.704Z,69.60
2019-05-25T16:43:22.293Z,69.50
2019-05-25T16:45:50.910Z,70.20
2019-05-25T16:48:19.529Z,70.20
2019-05-25T16:50:48.212Z,70.00
2019-05-25T16:53:16.816Z,72.50
2019-05-25T16:55:45.420Z,75.10
2019-05-25T16:58:14.297Z,76.30
2019-05-25T17:00:42.929Z,77.20
2019-05-25T17:03:26.989Z,76.60
2019-05-25T17:05:41.785Z,85.90
2019-05-25T17:08:10.677Z,88.80
2019-05-25T17:10:39.261Z,79.60
2019-05-25T17:13:07.843Z,78.40
2019-05-25T17:15:48.515Z,77.30
2019-05-25T17:18:17.101Z,77.70
2019-05-25T17:20:45.681Z,75.50
2019-05-25T17:23:14.260Z,76.10
2019-05-25T17:25:43.172Z,79.20
2019-05-25T17:28:12.076Z,77.10
2019-05-25T17:30:42.497Z,77.40
2019-05-25T17:33:11.191Z,77.40
2019-05-25T17:35:39.854Z,76.60
2019-05-25T17:38:08.432Z,76.60
2019-05-25T17:40:36.991Z,76.30
2019-05-25T17:43:05.585Z,76.10
2019-05-25T17:45:34.195Z,75.70
2019-05-25T17:48:02.761Z,75.80
2019-05-25T17:50:31.345Z,75.50
2019-05-25T17:52:59.914Z,75.10
2019-05-25T17:55:28.501Z,75.40
2019-05-25T17:57:57.080Z,75.30
2019-05-25T18:00:42.082Z,75.10
2019-05-25T18:03:10.963Z,74.90
2019-05-25T18:05:39.842Z,74.40
2019-05-25T18:08:08.457Z,74.20
2019-05-25T18:10:51.303Z,74.50
2019-05-25T18:13:07.774Z,74.30
2019-05-25T18:15:36.380Z,68.90
2019-05-25T18:18:05.614Z,70.20
2019-05-25T18:20:34.208Z,70.50
2019-05-25T18:23:02.869Z,69.20
2019-05-25T18:25:31.449Z,67.90
2019-05-25T18:28:00.086Z,67.10
2019-05-25T18:30:28.658Z,67.10
2019-05-25T18:32:57.261Z,66.80
2019-05-25T18:35:25.841Z,66.60
2019-05-25T18:37:54.452Z,66.10
2019-05-25T18:40:23.051Z,65.60
2019-05-25T18:42:51.730Z,66.10
2019-05-25T18:45:20.310Z,67.90
2019-05-25T18:47:48.935Z,67.90
2019-05-25T18:50:17.545Z,68.40
2019-05-25T18:52:46.431Z,68.30
2019-05-25T18:55:14.996Z,68.80
2019-05-25T18:57:43.742Z,69.60
2019-05-25T19:00:12.394Z,69.60
2019-05-25T19:02:40.970Z,66.90
2019-05-25T19:05:09.581Z,66.60
2019-05-25T19:07:38.163Z,68.20
2019-05-25T19:10:06.925Z,69.10
2019-05-25T19:12:35.572Z,69.90
2019-05-25T19:15:05.141Z,69.70
2019-05-25T19:17:33.746Z,69.90
2019-05-25T19:20:02.449Z,69.90
2019-05-25T19:22:31.065Z,70.60
2019-05-25T19:24:59.667Z,70.80
2019-05-25T19:27:28.232Z,72.20
2019-05-25T19:29:56.833Z,70.90
2019-05-25T19:32:25.689Z,70.60
2019-05-25T19:34:59.406Z,70.60
2019-05-25T19:37:24.818Z,71.00
2019-05-25T19:39:53.401Z,70.60
2019-05-25T23:39:14.570Z,42.04
2019-05-25T23:41:57.864Z,43.17
2019-05-25T23:46:50.187Z,62.30
2019-05-25T23:49:18.650Z,68.37
2019-05-25T23:51:47.100Z,72.18
2019-05-25T23:54:15.553Z,77.08
2019-05-25T23:56:44.011Z,80.30
2019-05-25T23:59:31.756Z,82.70
